Time;durP1;ratioP1;P1;durP2;ratioP2;P2;SDS_P1;SDS_P2;PMS_P1;PMS_P2;Temp;Humidity;BMP_temperature;BMP_pressure;BME280_temperature;BME280_humidity;BME280_pressure;Samples;Min_cycle;Max_cycle;Signal;HPM_P1;HPM_P2
2022/07/18 00:02:23;;;;;;;2.40;1.55;;;21.70;55.80;;;;;;5070982;28;20024;-72
2022/07/18 00:04:48;;;;;;;2.78;2.03;;;21.70;55.80;;;;;;5070909;28;20487;-72
2022/07/18 00:07:15;;;;;;;3.72;1.85;;;21.70;55.90;;;;;;5070599;28;20422;-71
2022/07/18 00:09:42;;;;;;;2.70;1.90;;;21.70;55.80;;;;;;5070375;28;20127;-71
2022/07/18 00:12:08;;;;;;;2.75;1.45;;;21.70;55.80;;;;;;5070614;28;20070;-71
2022/07/18 00:14:35;;;;;;;4.00;2.20;;;21.70;55.80;;;;;;5070265;28;20057;-72
2022/07/18 00:17:01;;;;;;;3.05;1.77;;;21.60;55.80;;;;;;5070486;28;20047;-72
2022/07/18 00:19:27;;;;;;;3.88;2.10;;;21.60;55.80;;;;;;5071721;28;20032;-71
2022/07/18 00:21:53;;;;;;;2.63;1.88;;;21.60;55.80;;;;;;5070712;28;20039;-72
2022/07/18 00:24:19;;;;;;;2.75;1.92;;;21.60;55.80;;;;;;5070433;28;20500;-72
2022/07/18 00:26:44;;;;;;;3.08;1.95;;;21.60;55.80;;;;;;5070755;28;20041;-73
2022/07/18 00:29:10;;;;;;;2.88;1.70;;;21.60;55.80;;;;;;5071743;28;20442;-71
2022/07/18 00:31:36;;;;;;;2.20;1.50;;;21.60;55.80;;;;;;5070556;28;20074;-72
2022/07/18 00:34:02;;;;;;;2.90;2.13;;;21.60;55.80;;;;;;5070530;28;20036;-71
2022/07/18 00:36:31;;;;;;;2.42;1.90;;;21.60;55.80;;;;;;5071474;28;20065;-72
2022/07/18 00:38:58;;;;;;;3.17;1.77;;;21.60;55.80;;;;;;5071610;28;20032;-71
2022/07/18 00:41:24;;;;;;;3.17;1.85;;;21.60;55.80;;;;;;5070473;28;20040;-71
2022/07/18 00:43:50;;;;;;;3.63;2.30;;;21.60;55.80;;;;;;5071562;28;20044;-71
2022/07/18 00:46:19;;;;;;;2.78;2.00;;;21.60;55.80;;;;;;5053823;28;20090;-71
2022/07/18 00:48:45;;;;;;;2.08;1.52;;;21.60;55.80;;;;;;5070235;28;20037;-72
2022/07/18 00:51:11;;;;;;;2.40;1.77;;;21.60;55.80;;;;;;5070333;28;20037;-71
2022/07/18 00:53:36;;;;;;;2.03;1.30;;;21.50;55.70;;;;;;5070107;28;20511;-71
2022/07/18 00:56:03;;;;;;;1.70;1.27;;;21.60;55.80;;;;;;5070075;28;20036;-72
2022/07/18 00:58:30;;;;;;;2.42;1.58;;;21.50;55.70;;;;;;5070203;28;20064;-71
2022/07/18 01:03:42;;;;;;;2.03;1.65;;;21.50;55.70;;;;;;5070161;28;20045;-71
2022/07/18 01:06:08;;;;;;;2.47;1.75;;;21.50;55.70;;;;;;5070798;28;20059;-71
2022/07/18 01:08:35;;;;;;;3.55;1.85;;;21.50;55.60;;;;;;5070755;28;20048;-72
2022/07/18 01:11:01;;;;;;;3.33;2.08;;;21.50;55.60;;;;;;5070221;28;20427;-71
2022/07/18 01:13:27;;;;;;;2.22;1.55;;;21.50;55.60;;;;;;5069696;28;20052;-72
2022/07/18 01:15:53;;;;;;;2.42;2.22;;;21.50;55.60;;;;;;5071244;28;20045;-72
2022/07/18 01:18:18;;;;;;;2.65;1.50;;;21.50;55.60;;;;;;5069875;28;20041;-71
2022/07/18 01:20:44;;;;;;;1.92;1.40;;;21.50;55.60;;;;;;5070603;28;20135;-72
2022/07/18 01:23:09;;;;;;;2.60;2.00;;;21.50;55.60;;;;;;5074798;28;20044;-72
2022/07/18 01:25:35;;;;;;;1.58;1.33;;;21.50;55.60;;;;;;5073803;28;20072;-71
2022/07/18 01:28:01;;;;;;;1.95;1.20;;;21.40;55.50;;;;;;5073363;28;20067;-71
2022/07/18 01:30:27;;;;;;;1.88;1.10;;;21.50;55.60;;;;;;5073676;28;20040;-71
2022/07/18 01:32:59;;;;;;;2.38;1.30;;;21.50;55.60;;;;;;5073354;28;20037;-72
2022/07/18 01:35:27;;;;;;;1.75;1.00;;;21.40;55.50;;;;;;5073561;28;20048;-72
2022/07/18 01:37:55;;;;;;;1.80;1.48;;;21.50;55.60;;;;;;5073549;28;20379;-72
2022/07/18 01:40:21;;;;;;;2.88;1.45;;;21.50;55.60;;;;;;5073649;28;20047;-71
2022/07/18 01:42:47;;;;;;;3.03;1.52;;;21.40;55.60;;;;;;5073130;28;20052;-71
2022/07/18 01:45:14;;;;;;;1.83;1.50;;;21.40;55.50;;;;;;5073454;28;20041;-71
2022/07/18 01:47:40;;;;;;;2.50;1.60;;;21.40;55.50;;;;;;5073320;28;20500;-72
2022/07/18 01:50:10;;;;;;;2.40;1.55;;;21.40;55.50;;;;;;5073066;28;20049;-71
2022/07/18 01:52:37;;;;;;;2.50;1.75;;;21.40;55.50;;;;;;5074208;28;20576;-71
2022/07/18 01:55:07;;;;;;;1.92;1.35;;;21.40;55.50;;;;;;5072931;28;20404;-71
2022/07/18 01:57:33;;;;;;;2.25;1.65;;;21.40;55.50;;;;;;5072240;28;20037;-71
2022/07/18 02:00:01;;;;;;;2.67;1.25;;;21.40;55.50;;;;;;5072628;28;20549;-72
2022/07/18 02:02:27;;;;;;;2.85;1.05;;;21.40;55.50;;;;;;5073069;28;20492;-72
2022/07/18 02:04:59;;;;;;;2.47;1.60;;;21.40;55.40;;;;;;5072995;28;20063;-71
2022/07/18 02:12:49;;;;;;;2.03;1.80;;;21.40;55.40;;;;;;5130199;27;20443;-72
2022/07/18 02:15:17;;;;;;;2.20;1.25;;;21.30;55.30;;;;;;5129132;28;20055;-72
2022/07/18 02:17:43;;;;;;;1.75;1.20;;;21.30;55.40;;;;;;5129207;28;20039;-72
2022/07/18 02:20:11;;;;;;;2.72;1.30;;;21.30;55.40;;;;;;5129159;28;20046;-72
2022/07/18 02:22:37;;;;;;;1.70;1.15;;;21.30;55.30;;;;;;5128943;28;20039;-72
2022/07/18 02:25:04;;;;;;;1.60;1.17;;;21.30;55.40;;;;;;5129036;28;20054;-71
2022/07/18 02:27:29;;;;;;;2.30;1.30;;;21.30;55.40;;;;;;5130169;27;20091;-72
2022/07/18 02:29:55;;;;;;;1.67;1.20;;;21.30;55.40;;;;;;5128629;28;20627;-71
2022/07/18 02:32:22;;;;;;;2.03;1.15;;;21.30;55.30;;;;;;5128625;28;20040;-71
2022/07/18 02:34:49;;;;;;;2.00;1.10;;;21.30;55.30;;;;;;5129894;27;20039;-72
2022/07/18 02:37:15;;;;;;;1.80;1.00;;;21.30;55.30;;;;;;5128892;28;20035;-72
2022/07/18 02:39:41;;;;;;;1.83;1.25;;;21.30;55.30;;;;;;5128427;27;20047;-72
2022/07/18 02:42:06;;;;;;;1.73;1.17;;;21.30;55.30;;;;;;5129829;28;20103;-72
2022/07/18 02:44:32;;;;;;;1.95;1.30;;;21.30;55.30;;;;;;5145628;27;20047;-72
2022/07/18 02:46:58;;;;;;;2.35;1.38;;;21.30;55.30;;;;;;5128659;28;20055;-71
2022/07/18 02:49:27;;;;;;;2.53;1.27;;;21.20;55.20;;;;;;5145569;27;20054;-71
2022/07/18 02:54:38;;;;;;;2.50;1.58;;;21.30;55.30;;;;;;5129695;27;20398;-72
2022/07/18 02:57:05;;;;;;;1.38;0.90;;;21.20;55.30;;;;;;5128885;28;20039;-72
2022/07/18 02:59:31;;;;;;;2.70;1.33;;;21.20;55.20;;;;;;5130105;28;20082;-71
2022/07/18 03:01:57;;;;;;;2.15;1.30;;;21.20;55.20;;;;;;5128950;27;20467;-72
2022/07/18 03:04:23;;;;;;;2.28;1.20;;;21.20;55.20;;;;;;5129165;27;20039;-72
2022/07/18 03:06:52;;;;;;;2.03;0.90;;;21.20;55.30;;;;;;5128764;28;20096;-71
2022/07/18 03:09:18;;;;;;;1.77;1.13;;;21.20;55.30;;;;;;5128850;28;20061;-72
2022/07/18 03:11:47;;;;;;;1.60;1.33;;;21.20;55.20;;;;;;5129851;28;20043;-72
2022/07/18 03:14:13;;;;;;;1.80;0.93;;;21.20;55.20;;;;;;5127903;28;20475;-72
2022/07/18 03:16:39;;;;;;;2.17;1.50;;;21.20;55.30;;;;;;5128410;28;20038;-72
2022/07/18 03:19:05;;;;;;;1.95;1.45;;;21.10;55.20;;;;;;5129834;28;20035;-72
2022/07/18 03:21:30;;;;;;;2.83;1.48;;;21.20;55.20;;;;;;5128564;28;20077;-72
2022/07/18 03:23:56;;;;;;;2.05;1.33;;;21.20;55.20;;;;;;5128798;28;20055;-72
2022/07/18 03:26:22;;;;;;;2.40;1.40;;;21.10;55.20;;;;;;5128385;28;20418;-72
2022/07/18 03:28:48;;;;;;;1.70;1.38;;;21.10;55.10;;;;;;5128373;28;20043;-72
2022/07/18 03:31:14;;;;;;;2.35;0.95;;;21.10;55.10;;;;;;5128281;28;20050;-72
2022/07/18 03:33:40;;;;;;;3.22;1.80;;;21.10;55.10;;;;;;5129725;28;20172;-72
2022/07/18 03:36:09;;;;;;;1.50;0.98;;;21.10;55.10;;;;;;5129621;28;20068;-72
2022/07/18 03:38:36;;;;;;;2.55;1.52;;;21.10;55.10;;;;;;5128505;27;20035;-72
2022/07/18 03:41:04;;;;;;;2.58;1.27;;;21.10;55.10;;;;;;5128120;28;20039;-72
2022/07/18 03:43:30;;;;;;;2.45;1.30;;;21.10;55.10;;;;;;5128097;28;20540;-72
2022/07/18 03:45:56;;;;;;;2.22;1.73;;;21.10;55.10;;;;;;5128672;28;20031;-72
2022/07/18 03:48:22;;;;;;;1.50;1.00;;;21.10;55.10;;;;;;5127941;28;20023;-72
2022/07/18 03:50:47;;;;;;;1.95;1.48;;;21.10;55.10;;;;;;5128457;28;20505;-72
2022/07/18 03:53:13;;;;;;;3.47;1.45;;;21.10;55.10;;;;;;5127683;28;20426;-72
2022/07/18 03:55:39;;;;;;;2.33;1.13;;;21.10;55.10;;;;;;5128088;28;20107;-72
2022/07/18 03:58:04;;;;;;;3.63;1.70;;;21.10;55.20;;;;;;5129017;28;20415;-72
2022/07/18 04:00:30;;;;;;;3.33;1.55;;;21.00;55.10;;;;;;5128050;28;20417;-71
2022/07/18 04:02:55;;;;;;;1.58;1.27;;;21.10;55.10;;;;;;5127741;28;20089;-72
2022/07/18 04:05:21;;;;;;;1.58;1.20;;;21.00;55.10;;;;;;5117050;28;20170;-72
2022/07/18 04:07:47;;;;;;;2.00;1.35;;;21.00;55.10;;;;;;5113997;28;20062;-72
2022/07/18 04:10:13;;;;;;;3.33;1.10;;;21.10;55.10;;;;;;5113980;28;20088;-72
2022/07/18 04:12:50;;;;;;;1.95;1.55;;;21.00;55.10;;;;;;5114966;28;20433;-72
2022/07/18 04:15:16;;;;;;;3.00;1.33;;;21.00;55.90;;;;;;5113836;28;20044;-72
2022/07/18 04:17:42;;;;;;;2.05;1.25;;;21.00;55.10;;;;;;5115034;28;20027;-72
2022/07/18 04:20:08;;;;;;;2.22;1.42;;;21.00;55.40;;;;;;5114060;28;20058;-72
2022/07/18 04:22:51;;;;;;;2.70;1.75;;;21.00;55.10;;;;;;5113662;28;20075;-72
2022/07/18 04:25:19;;;;;;;2.88;1.40;;;21.00;55.10;;;;;;5113839;28;20112;-72
2022/07/18 04:27:45;;;;;;;2.05;1.50;;;21.00;55.10;;;;;;5113504;28;20118;-72
2022/07/18 04:30:12;;;;;;;1.60;1.27;;;21.00;55.10;;;;;;5113632;28;20039;-71
2022/07/18 04:32:38;;;;;;;2.55;1.40;;;21.00;55.10;;;;;;5113346;28;20096;-73
2022/07/18 04:35:05;;;;;;;2.38;1.30;;;21.00;55.20;;;;;;5113740;28;20032;-72
2022/07/18 04:37:31;;;;;;;1.60;1.40;;;21.00;55.20;;;;;;5113861;28;20572;-72
2022/07/18 04:39:58;;;;;;;2.70;1.30;;;21.00;55.20;;;;;;5113699;28;20043;-72
2022/07/18 04:42:23;;;;;;;2.72;1.45;;;21.00;55.30;;;;;;5113617;28;20066;-71
2022/07/18 04:44:49;;;;;;;2.25;1.27;;;21.00;55.20;;;;;;5114495;28;20497;-71
2022/07/18 04:47:15;;;;;;;2.55;1.17;;;21.00;55.30;;;;;;5113227;28;20039;-72
2022/07/18 04:49:40;;;;;;;3.08;1.77;;;21.00;55.30;;;;;;5114417;28;20131;-71
2022/07/18 04:52:06;;;;;;;2.65;1.58;;;21.00;55.30;;;;;;5113408;28;20071;-72
2022/07/18 04:54:32;;;;;;;3.03;1.60;;;21.00;55.30;;;;;;5112978;28;20421;-72
2022/07/18 04:56:57;;;;;;;2.30;1.27;;;21.00;55.30;;;;;;5112960;28;20035;-72
2022/07/18 04:59:23;;;;;;;2.65;1.67;;;21.00;55.30;;;;;;5113223;28;20051;-72
2022/07/18 05:01:48;;;;;;;2.72;1.45;;;21.00;55.30;;;;;;5112970;28;20046;-72
2022/07/18 05:04:14;;;;;;;2.33;1.52;;;21.00;55.40;;;;;;5112838;28;20071;-72
2022/07/18 05:06:40;;;;;;;2.92;1.70;;;21.00;55.40;;;;;;5112877;28;20092;-71
2022/07/18 05:09:05;;;;;;;1.90;1.58;;;21.00;55.40;;;;;;5113001;28;20039;-72
2022/07/18 05:11:31;;;;;;;2.35;1.40;;;21.00;55.40;;;;;;5112999;28;20067;-71
2022/07/18 05:13:56;;;;;;;2.30;1.58;;;21.00;55.40;;;;;;5112611;28;20057;-72
2022/07/18 05:16:22;;;;;;;2.42;1.80;;;21.00;55.40;;;;;;5115975;28;20044;-72
2022/07/18 05:18:48;;;;;;;2.03;1.40;;;21.00;55.40;;;;;;5112929;28;20085;-72
2022/07/18 05:21:13;;;;;;;2.67;1.65;;;21.00;55.50;;;;;;5112492;28;20035;-71
2022/07/18 05:23:39;;;;;;;2.08;1.35;;;21.00;55.50;;;;;;5111756;28;20123;-73
2022/07/18 05:26:05;;;;;;;2.20;1.70;;;21.00;55.50;;;;;;5111321;28;20084;-72
2022/07/18 05:28:30;;;;;;;2.67;1.40;;;21.00;55.60;;;;;;5110360;28;20051;-71
2022/07/18 05:30:56;;;;;;;1.98;1.65;;;21.00;55.60;;;;;;5112184;28;20091;-72
2022/07/18 05:33:22;;;;;;;1.83;1.48;;;21.00;55.60;;;;;;5111997;28;20036;-72
2022/07/18 05:35:47;;;;;;;2.90;1.95;;;21.00;55.60;;;;;;5112025;28;20036;-72
2022/07/18 05:38:13;;;;;;;1.55;1.30;;;21.00;55.70;;;;;;5112129;28;20081;-72
2022/07/18 05:40:39;;;;;;;2.83;1.55;;;21.00;55.70;;;;;;5112204;28;20290;-74
2022/07/18 05:43:07;;;;;;;1.95;1.70;;;21.00;55.70;;;;;;5111935;28;20046;-74
2022/07/18 05:45:33;;;;;;;2.95;1.52;;;21.00;55.70;;;;;;5112139;28;20039;-74
2022/07/18 05:47:59;;;;;;;2.83;1.95;;;21.00;55.80;;;;;;5111803;28;20137;-74
2022/07/18 05:50:25;;;;;;;2.33;1.70;;;21.00;55.80;;;;;;5113248;28;20049;-74
2022/07/18 05:52:57;;;;;;;2.28;1.55;;;21.00;55.80;;;;;;5112638;28;20051;-74
2022/07/18 05:55:22;;;;;;;2.72;1.70;;;21.00;56.60;;;;;;5113014;28;20040;-74
2022/07/18 05:57:49;;;;;;;2.35;1.60;;;21.00;55.80;;;;;;5108840;28;20623;-74
2022/07/18 06:00:16;;;;;;;2.42;1.23;;;21.00;55.80;;;;;;5111576;28;20035;-74
2022/07/18 06:02:41;;;;;;;1.92;1.52;;;21.00;55.80;;;;;;5112853;28;20055;-74
2022/07/18 06:05:10;;;;;;;1.83;1.67;;;21.10;55.80;;;;;;5109395;28;20039;-74
2022/07/18 06:07:39;;;;;;;2.00;1.35;;;21.10;55.90;;;;;;5109729;28;20067;-76
2022/07/18 06:10:06;;;;;;;2.88;1.85;;;21.00;55.80;;;;;;5110825;28;20039;-77
2022/07/18 06:12:32;;;;;;;2.13;1.60;;;21.10;55.80;;;;;;5110396;28;20502;-76
2022/07/18 06:15:01;;;;;;;4.75;2.10;;;21.10;55.80;;;;;;5110824;28;20032;-76
2022/07/18 06:17:29;;;;;;;2.00;1.30;;;21.10;55.80;;;;;;5111486;28;20035;-76
2022/07/18 06:19:55;;;;;;;2.45;1.27;;;21.10;55.80;;;;;;5111017;28;20078;-75
2022/07/18 06:22:22;;;;;;;2.55;1.30;;;21.10;55.80;;;;;;5111011;28;20121;-75
2022/07/18 06:24:48;;;;;;;3.03;1.60;;;21.10;55.80;;;;;;5112338;28;20043;-75
2022/07/18 06:27:13;;;;;;;1.65;1.30;;;21.10;55.70;;;;;;5107549;28;20031;-70
2022/07/18 06:29:39;;;;;;;1.67;1.10;;;21.10;55.80;;;;;;5110126;28;20048;-70
2022/07/18 06:32:05;;;;;;;2.95;1.10;;;21.20;56.00;;;;;;5111263;28;20036;-70
2022/07/18 06:34:31;;;;;;;3.13;1.10;;;21.20;56.10;;;;;;5109474;28;20062;-70
2022/07/18 06:36:56;;;;;;;1.60;0.73;;;21.20;56.10;;;;;;5110662;28;20032;-70
2022/07/18 06:39:22;;;;;;;2.35;1.00;;;21.20;56.10;;;;;;5110582;28;20135;-70
2022/07/18 06:41:48;;;;;;;1.75;1.00;;;21.30;56.10;;;;;;5109961;28;20043;-70
2022/07/18 06:44:14;;;;;;;2.90;0.80;;;21.30;56.00;;;;;;5108070;28;20044;-70
2022/07/18 06:46:40;;;;;;;3.55;0.82;;;21.40;56.00;;;;;;5108192;28;20403;-71
2022/07/18 06:49:05;;;;;;;1.10;0.63;;;21.40;56.00;;;;;;5108078;28;20084;-69
2022/07/18 06:51:31;;;;;;;2.72;0.88;;;21.40;56.00;;;;;;5111346;28;20093;-69
2022/07/18 06:53:57;;;;;;;1.38;0.80;;;21.40;55.90;;;;;;5111379;28;20051;-69
2022/07/18 06:56:25;;;;;;;1.50;0.82;;;21.50;55.90;;;;;;5111043;28;20062;-71
2022/07/18 06:58:51;;;;;;;3.75;0.90;;;21.50;55.90;;;;;;5110134;28;20040;-73
2022/07/18 07:01:18;;;;;;;3.75;1.27;;;21.50;55.90;;;;;;5109350;28;20388;-71
2022/07/18 07:03:44;;;;;;;2.70;0.88;;;21.60;56.10;;;;;;5110464;28;20062;-72
2022/07/18 07:06:10;;;;;;;3.42;0.80;;;21.60;56.00;;;;;;5108973;28;20517;-71
2022/07/18 07:08:35;;;;;;;6.30;0.70;;;21.60;55.90;;;;;;5107396;28;20071;-73
2022/07/18 07:11:01;;;;;;;4.85;1.05;;;21.60;55.80;;;;;;5106902;28;20050;-73
2022/07/18 07:13:27;;;;;;;4.72;1.00;;;21.70;55.80;;;;;;5109143;28;20074;-73
2022/07/18 07:15:53;;;;;;;2.78;0.90;;;21.70;55.80;;;;;;5094406;28;20053;-73
2022/07/18 07:18:19;;;;;;;6.97;1.10;;;21.70;55.70;;;;;;5107511;28;20084;-73
2022/07/18 07:20:45;;;;;;;3.25;1.20;;;21.70;55.70;;;;;;5109476;28;20428;-79
2022/07/18 07:23:11;;;;;;;5.60;0.90;;;21.80;55.70;;;;;;5110516;28;20035;-77
2022/07/18 07:25:38;;;;;;;6.32;1.00;;;21.80;55.70;;;;;;5109013;28;20050;-75
2022/07/18 07:28:05;;;;;;;8.25;1.20;;;21.80;55.70;;;;;;5109835;28;20043;-75
2022/07/18 07:30:32;;;;;;;9.90;1.17;;;21.80;55.80;;;;;;5110212;28;20042;-80
2022/07/18 07:32:58;;;;;;;6.88;0.82;;;21.80;55.90;;;;;;5110678;28;20043;-75
2022/07/18 07:35:23;;;;;;;8.80;1.20;;;21.90;56.00;;;;;;5109616;28;20031;-75
2022/07/18 07:37:52;;;;;;;6.70;1.38;;;21.90;56.00;;;;;;5109907;28;20039;-74
2022/07/18 07:40:18;;;;;;;10.30;1.02;;;21.90;55.90;;;;;;5111308;28;20042;-79
2022/07/18 07:42:44;;;;;;;6.72;1.05;;;21.90;55.90;;;;;;5113022;28;20126;-79
2022/07/18 07:45:10;;;;;;;2.92;0.70;;;21.90;55.90;;;;;;5113869;28;20497;-77
2022/07/18 07:47:37;;;;;;;11.57;1.60;;;21.90;56.00;;;;;;5114133;28;20052;-74
2022/07/18 07:50:05;;;;;;;9.07;1.10;;;21.90;56.00;;;;;;5114209;28;20051;-76
2022/07/18 07:52:30;;;;;;;10.55;1.52;;;22.00;56.00;;;;;;5113325;28;20452;-76
2022/07/18 07:54:56;;;;;;;5.00;0.80;;;22.00;56.10;;;;;;5114704;28;20043;-85
2022/07/18 07:57:22;;;;;;;4.93;1.30;;;22.00;56.10;;;;;;5113753;28;20043;-78
2022/07/18 07:59:48;;;;;;;4.65;1.25;;;22.00;56.00;;;;;;5112252;28;20043;-74
2022/07/18 08:02:15;;;;;;;5.15;0.80;;;22.10;56.10;;;;;;5130254;27;20032;-76
2022/07/18 08:04:41;;;;;;;5.13;1.27;;;22.10;55.90;;;;;;5113269;28;20044;-75
2022/07/18 08:07:06;;;;;;;4.25;1.10;;;22.10;55.60;;;;;;5112851;28;20051;-74
2022/07/18 08:09:32;;;;;;;7.25;1.10;;;22.10;55.50;;;;;;5110374;28;20383;-75
2022/07/18 08:11:58;;;;;;;6.38;0.85;;;22.10;55.40;;;;;;5110336;28;20047;-78
2022/07/18 08:14:23;;;;;;;3.92;1.30;;;22.10;55.30;;;;;;5108951;28;20027;-77
2022/07/18 08:16:49;;;;;;;4.10;0.77;;;22.30;55.40;;;;;;5110544;28;20038;-76
2022/07/18 08:19:15;;;;;;;5.45;1.30;;;22.20;55.40;;;;;;5110219;28;20390;-75
2022/07/18 08:21:41;;;;;;;3.58;1.30;;;22.20;55.50;;;;;;5109632;28;20035;-78
2022/07/18 08:24:06;;;;;;;5.38;0.82;;;22.20;55.50;;;;;;5110669;28;20044;-79
2022/07/18 08:26:35;;;;;;;3.95;0.80;;;22.20;55.50;;;;;;5109106;28;20046;-74
2022/07/18 08:29:01;;;;;;;8.45;0.98;;;22.20;55.50;;;;;;5108410;28;20490;-72
2022/07/18 08:31:27;;;;;;;8.07;0.68;;;22.30;55.40;;;;;;5108883;28;20039;-74
2022/07/18 08:33:53;;;;;;;7.80;1.25;;;22.30;55.40;;;;;;5109830;28;20513;-78
2022/07/18 08:36:20;;;;;;;12.38;0.95;;;22.20;55.30;;;;;;5107728;28;20031;-82
2022/07/18 08:38:46;;;;;;;1.77;0.52;;;22.20;55.30;;;;;;5108600;28;20040;-78
2022/07/18 08:41:16;;;;;;;6.93;0.65;;;22.20;55.30;;;;;;5110060;28;20031;-81
2022/07/18 08:43:44;;;;;;;5.00;1.40;;;22.20;55.30;;;;;;5105591;28;20027;-78
2022/07/18 08:46:11;;;;;;;4.60;0.88;;;22.20;55.30;;;;;;5111486;28;20495;-79
2022/07/18 08:48:39;;;;;;;7.35;0.90;;;22.20;55.30;;;;;;5109652;28;20040;-75
2022/07/18 08:51:06;;;;;;;2.65;1.30;;;22.20;55.20;;;;;;5111156;28;20032;-79
2022/07/18 08:53:33;;;;;;;2.60;1.33;;;22.10;55.20;;;;;;5110987;28;20056;-82
2022/07/18 08:55:59;;;;;;;3.67;0.77;;;22.20;55.20;;;;;;5111685;28;20036;-87
2022/07/18 08:58:25;;;;;;;6.78;0.90;;;22.10;55.10;;;;;;5109988;28;20043;-84
2022/07/18 09:00:51;;;;;;;4.03;0.88;;;22.10;55.10;;;;;;5111065;28;20063;-77
2022/07/18 09:03:17;;;;;;;3.33;0.90;;;22.10;55.10;;;;;;5111054;28;20039;-82
2022/07/18 09:05:42;;;;;;;2.72;0.60;;;22.10;55.10;;;;;;5129122;27;20118;-82
2022/07/18 09:10:58;;;;;;;5.13;0.75;;;22.10;55.00;;;;;;5088196;28;20447;-82
2022/07/18 09:13:35;;;;;;;2.83;0.80;;;22.10;54.90;;;;;;5085426;28;20044;-78
2022/07/18 09:16:07;;;;;;;4.32;0.75;;;22.10;54.90;;;;;;5085411;28;20039;-79
2022/07/18 09:18:36;;;;;;;3.10;0.82;;;22.10;54.80;;;;;;5087041;28;20107;-81
2022/07/18 09:21:06;;;;;;;3.38;0.82;;;22.20;54.80;;;;;;5087311;28;20025;-84
2022/07/18 09:23:33;;;;;;;3.57;0.80;;;22.20;54.70;;;;;;5086076;28;20028;-75
2022/07/18 09:26:00;;;;;;;2.10;0.98;;;22.30;54.70;;;;;;5086491;28;20282;-80
2022/07/18 09:28:27;;;;;;;4.97;0.65;;;22.20;54.60;;;;;;5085543;28;20075;-77
2022/07/18 09:30:53;;;;;;;4.85;0.88;;;22.30;54.60;;;;;;5085382;28;20055;-82
2022/07/18 09:33:20;;;;;;;2.30;0.80;;;22.30;54.50;;;;;;5085526;28;20074;-82
2022/07/18 09:38:29;;;;;;;3.83;0.88;;;22.30;54.40;;;;;;5086878;27;20364;-85
2022/07/18 09:40:57;;;;;;;1.57;0.57;;;22.30;54.30;;;;;;5082887;28;20068;-84
2022/07/18 09:43:24;;;;;;;2.10;0.55;;;22.30;54.20;;;;;;5085933;28;20501;-81
2022/07/18 09:45:53;;;;;;;2.13;0.40;;;22.30;54.10;;;;;;5086065;28;20115;-80
2022/07/18 09:48:22;;;;;;;2.42;0.68;;;22.30;54.10;;;;;;5083163;28;20053;-87
2022/07/18 09:56:07;;;;;;;1.75;0.73;;;22.40;54.10;;;;;;5091234;28;20417;-88
2022/07/18 09:58:36;;;;;;;2.22;0.65;;;22.40;53.90;;;;;;5086680;28;20068;-86
2022/07/18 10:01:04;;;;;;;1.63;0.73;;;22.40;53.90;;;;;;5083998;28;20424;-88
2022/07/18 10:03:30;;;;;;;2.40;0.57;;;22.40;53.90;;;;;;5091554;28;20036;-88
2022/07/18 10:05:58;;;;;;;2.33;0.50;;;22.40;53.80;;;;;;5089061;28;20032;-88
2022/07/18 10:08:33;;;;;;;2.08;0.50;;;22.40;53.80;;;;;;5089789;28;20028;-87
2022/07/18 10:11:01;;;;;;;3.05;0.70;;;22.40;53.80;;;;;;5088464;28;20060;-85
2022/07/18 10:13:29;;;;;;;2.60;0.60;;;22.40;53.70;;;;;;5086970;28;20040;-80
2022/07/18 10:15:58;;;;;;;2.65;0.63;;;22.40;53.70;;;;;;5085586;28;20063;-87
2022/07/18 10:18:29;;;;;;;2.97;1.30;;;22.40;53.70;;;;;;5085948;28;20391;-86
2022/07/18 10:20:59;;;;;;;1.77;0.82;;;22.40;53.70;;;;;;5084641;28;20045;-87
2022/07/18 10:23:30;;;;;;;2.55;0.40;;;22.40;53.70;;;;;;5087850;28;20058;-87
2022/07/18 10:26:17;;;;;;;3.67;0.40;;;22.40;53.70;;;;;;5086331;28;20051;-89
2022/07/18 10:31:59;;;;;;;1.58;0.52;;;22.40;53.60;;;;;;5105953;27;20129;-85
2022/07/18 10:34:35;;;;;;;1.30;0.55;;;22.40;53.60;;;;;;5078601;28;20076;-86
2022/07/18 10:39:47;;;;;;;1.88;0.55;;;22.40;53.50;;;;;;5130955;27;20407;-85
2022/07/18 10:44:54;;;;;;;1.63;0.70;;;22.40;53.50;;;;;;5130561;27;20379;-85
2022/07/18 10:47:22;;;;;;;3.47;0.60;;;22.40;53.50;;;;;;5130226;28;20085;-85
2022/07/18 11:00:36;;;;;;;2.47;0.65;;;22.40;53.50;;;;;;5131148;27;20387;-85
2022/07/18 11:05:51;;;;;;;1.23;0.32;;;22.40;53.40;;;;;;5131834;27;20707;-85
2022/07/18 11:08:19;;;;;;;1.60;0.50;;;22.40;53.40;;;;;;5129614;28;20391;-80
2022/07/18 11:21:34;;;;;;;2.03;0.85;;;22.40;53.40;;;;;;5087809;28;20364;-74
2022/07/18 11:26:46;;;;;;;2.03;0.98;;;22.70;54.50;;;;;;5108707;27;20445;-84
2022/07/18 11:29:14;;;;;;;4.22;1.42;;;22.60;54.40;;;;;;5089860;28;20140;-76
2022/07/18 11:31:47;;;;;;;2.30;1.15;;;22.70;54.40;;;;;;5087709;28;20057;-78
2022/07/18 11:34:13;;;;;;;3.15;1.60;;;22.80;54.20;;;;;;5090918;28;20047;-80
2022/07/18 11:36:42;;;;;;;2.85;1.25;;;22.80;53.80;;;;;;5088482;28;20496;-77
2022/07/18 11:39:09;;;;;;;3.53;1.38;;;22.90;53.90;;;;;;5075144;28;20068;-77
2022/07/18 11:41:40;;;;;;;4.00;1.23;;;22.90;53.80;;;;;;5075561;28;20040;-78
2022/07/18 11:44:31;;;;;;;2.50;1.10;;;22.90;53.60;;;;;;5079683;28;20105;-78
2022/07/18 11:47:02;;;;;;;3.60;1.27;;;22.90;53.40;;;;;;5069665;28;20040;-79
2022/07/18 11:49:31;;;;;;;2.05;1.02;;;23.00;53.30;;;;;;5098204;28;20062;-76
2022/07/18 11:51:57;;;;;;;3.30;1.58;;;23.00;53.20;;;;;;5077937;28;20036;-74
2022/07/18 11:54:25;;;;;;;4.32;1.35;;;23.00;53.10;;;;;;5072815;28;20043;-77
2022/07/18 11:56:53;;;;;;;3.03;1.58;;;23.10;54.10;;;;;;5088373;28;20048;-76
2022/07/18 11:59:34;;;;;;;2.42;1.15;;;23.20;53.50;;;;;;5088476;28;20456;-80
2022/07/18 12:02:01;;;;;;;4.15;1.15;;;23.30;53.50;;;;;;5074350;28;20035;-80
2022/07/18 12:04:27;;;;;;;2.35;1.45;;;23.30;53.50;;;;;;5075313;28;20040;-80
2022/07/18 12:09:53;;;;;;;2.88;1.63;;;23.40;54.00;;;;;;5127197;27;20777;-77
2022/07/18 12:12:21;;;;;;;3.35;1.55;;;23.50;53.80;;;;;;5113348;28;20040;-81
2022/07/18 12:15:03;;;;;;;6.07;1.45;;;23.60;53.80;;;;;;5121943;27;20502;-75
2022/07/18 12:17:29;;;;;;;3.35;1.73;;;23.70;53.50;;;;;;5117527;27;20103;-78
2022/07/18 12:23:11;;;;;;;4.47;1.77;;;23.70;53.60;;;;;;5126579;27;20392;-84
2022/07/18 12:25:40;;;;;;;4.88;1.20;;;23.80;53.40;;;;;;5102996;28;20043;-78
2022/07/18 12:28:15;;;;;;;5.93;2.05;;;23.80;53.40;;;;;;5108145;28;20035;-81
2022/07/18 12:30:41;;;;;;;3.88;1.55;;;23.80;53.50;;;;;;5107791;28;20036;-77
2022/07/18 12:33:09;;;;;;;7.35;1.75;;;23.80;53.50;;;;;;5107298;28;20107;-77
2022/07/18 12:35:39;;;;;;;8.13;1.55;;;23.80;53.40;;;;;;5108043;28;20391;-84
2022/07/18 12:38:08;;;;;;;3.67;1.42;;;23.70;53.40;;;;;;5109149;28;20111;-75
2022/07/18 12:40:58;;;;;;;5.20;1.38;;;23.70;53.30;;;;;;5106340;28;20031;-81
2022/07/18 12:43:29;;;;;;;5.32;1.88;;;23.70;53.70;;;;;;5102563;28;20058;-80
2022/07/18 12:45:57;;;;;;;5.97;2.22;;;23.80;53.60;;;;;;5106655;28;20043;-83
2022/07/18 12:48:23;;;;;;;4.80;1.58;;;23.80;53.70;;;;;;5105758;28;20069;-81
2022/07/18 12:51:00;;;;;;;7.10;1.70;;;23.90;53.70;;;;;;5107282;28;20047;-81
2022/07/18 12:53:31;;;;;;;6.00;1.58;;;23.90;53.70;;;;;;5105624;28;20487;-77
2022/07/18 12:55:57;;;;;;;9.95;2.47;;;24.00;53.70;;;;;;5106786;28;20056;-80
2022/07/18 12:58:23;;;;;;;10.98;1.85;;;24.10;53.70;;;;;;5107304;28;20040;-82
2022/07/18 13:00:49;;;;;;;10.57;2.78;;;24.10;53.60;;;;;;5099550;28;20036;-77
2022/07/18 13:03:16;;;;;;;6.95;2.47;;;24.10;53.60;;;;;;5108017;28;20039;-83
2022/07/18 13:05:42;;;;;;;9.35;2.50;;;24.10;53.50;;;;;;5119106;28;20072;-79
2022/07/18 13:08:10;;;;;;;11.93;3.03;;;24.10;53.50;;;;;;5109134;28;20074;-85
2022/07/18 13:10:37;;;;;;;8.90;2.45;;;24.20;53.40;;;;;;5108468;28;20044;-85
2022/07/18 13:13:04;;;;;;;6.53;2.60;;;24.20;53.20;;;;;;5108290;28;20376;-85
2022/07/18 13:15:30;;;;;;;5.35;2.47;;;24.20;53.10;;;;;;5107748;28;20040;-85
2022/07/18 13:17:56;;;;;;;6.10;2.15;;;24.20;53.10;;;;;;5107829;28;20032;-85
2022/07/18 13:20:22;;;;;;;3.95;2.53;;;24.10;53.90;;;;;;5107151;28;20054;-79
2022/07/18 13:22:47;;;;;;;4.78;2.03;;;24.20;53.40;;;;;;5109051;28;20055;-85
2022/07/18 13:25:13;;;;;;;9.57;2.88;;;24.10;53.40;;;;;;5108330;28;20040;-85
2022/07/18 13:27:39;;;;;;;8.05;2.63;;;24.10;53.40;;;;;;5109322;28;20027;-86
2022/07/18 13:30:08;;;;;;;8.27;2.10;;;24.10;53.40;;;;;;5107718;28;20621;-84
2022/07/18 13:32:34;;;;;;;4.68;2.15;;;24.10;53.50;;;;;;5103879;28;20126;-85
2022/07/18 13:35:00;;;;;;;4.28;2.42;;;24.10;53.50;;;;;;5094408;28;20048;-85
2022/07/18 13:37:26;;;;;;;7.93;3.30;;;24.10;53.50;;;;;;5093623;28;20040;-69
2022/07/18 13:39:51;;;;;;;8.77;2.40;;;24.10;53.70;;;;;;5094120;28;20035;-75
2022/07/18 13:42:17;;;;;;;11.18;2.72;;;24.10;53.80;;;;;;5109372;28;20391;-74
2022/07/18 13:44:45;;;;;;;9.82;2.17;;;24.10;53.80;;;;;;5092721;28;20066;-74
2022/07/18 13:47:12;;;;;;;7.68;2.50;;;24.10;53.90;;;;;;5109760;28;20044;-74
2022/07/18 13:49:37;;;;;;;8.30;2.10;;;24.00;54.00;;;;;;5093287;28;20040;-74